sensor_id;sensor_type;location;lat;lon;timestamp;temperature;humidity
67799;SHT30;54596;43.216;27.904;2023-02-16T00:01:26;2.07;76.13
67799;SHT30;54596;43.216;27.904;2023-02-16T00:03:53;2.00;76.50
67799;SHT30;54596;43.216;27.904;2023-02-16T00:06:18;1.91;77.87
67799;SHT30;54596;43.216;27.904;2023-02-16T00:08:49;1.79;78.94
67799;SHT30;54596;43.216;27.904;2023-02-16T00:14:02;1.70;79.79
67799;SHT30;54596;43.216;27.904;2023-02-16T00:16:28;1.60;80.17
67799;SHT30;54596;43.216;27.904;2023-02-16T00:18:54;1.60;80.08
67799;SHT30;54596;43.216;27.904;2023-02-16T00:21:20;1.60;80.04
67799;SHT30;54596;43.216;27.904;2023-02-16T00:23:46;1.46;80.23
67799;SHT30;54596;43.216;27.904;2023-02-16T00:26:23;1.49;79.85
67799;SHT30;54596;43.216;27.904;2023-02-16T00:28:54;1.55;79.52
67799;SHT30;54596;43.216;27.904;2023-02-16T00:31:23;1.58;78.97
67799;SHT30;54596;43.216;27.904;2023-02-16T00:33:51;1.54;78.70
67799;SHT30;54596;43.216;27.904;2023-02-16T00:36:17;1.52;78.66
67799;SHT30;54596;43.216;27.904;2023-02-16T00:38:43;1.54;78.55
67799;SHT30;54596;43.216;27.904;2023-02-16T00:41:20;1.49;78.57
67799;SHT30;54596;43.216;27.904;2023-02-16T00:44:11;1.51;78.50
67799;SHT30;54596;43.216;27.904;2023-02-16T00:46:38;1.49;78.41
67799;SHT30;54596;43.216;27.904;2023-02-16T00:49:04;1.51;78.17
67799;SHT30;54596;43.216;27.904;2023-02-16T00:51:29;1.54;78.04
67799;SHT30;54596;43.216;27.904;2023-02-16T00:53:55;1.48;77.95
67799;SHT30;54596;43.216;27.904;2023-02-16T00:56:21;1.46;77.87
67799;SHT30;54596;43.216;27.904;2023-02-16T00:58:49;1.45;77.93
67799;SHT30;54596;43.216;27.904;2023-02-16T01:01:17;1.41;77.78
67799;SHT30;54596;43.216;27.904;2023-02-16T01:03:45;1.41;77.87
67799;SHT30;54596;43.216;27.904;2023-02-16T01:06:10;1.39;77.93
67799;SHT30;54596;43.216;27.904;2023-02-16T01:09:08;1.35;78.14
67799;SHT30;54596;43.216;27.904;2023-02-16T01:11:53;1.35;77.97
67799;SHT30;54596;43.216;27.904;2023-02-16T01:14:19;1.30;77.94
67799;SHT30;54596;43.216;27.904;2023-02-16T01:16:44;1.31;78.01
67799;SHT30;54596;43.216;27.904;2023-02-16T01:19:11;1.35;77.91
67799;SHT30;54596;43.216;27.904;2023-02-16T01:21:37;1.32;77.90
67799;SHT30;54596;43.216;27.904;2023-02-16T01:24:03;1.31;78.03
67799;SHT30;54596;43.216;27.904;2023-02-16T01:26:31;1.28;78.27
67799;SHT30;54596;43.216;27.904;2023-02-16T01:29:01;1.21;78.51
67799;SHT30;54596;43.216;27.904;2023-02-16T01:31:26;1.26;78.51
67799;SHT30;54596;43.216;27.904;2023-02-16T01:33:52;1.27;78.06
67799;SHT30;54596;43.216;27.904;2023-02-16T01:36:28;1.28;78.16
67799;SHT30;54596;43.216;27.904;2023-02-16T01:38:55;1.23;78.45
67799;SHT30;54596;43.216;27.904;2023-02-16T01:44:27;1.19;78.48
67799;SHT30;54596;43.216;27.904;2023-02-16T01:47:04;1.20;78.32
67799;SHT30;54596;43.216;27.904;2023-02-16T01:49:33;1.23;78.15
67799;SHT30;54596;43.216;27.904;2023-02-16T01:52:30;1.16;78.09
67799;SHT30;54596;43.216;27.904;2023-02-16T02:00:14;1.16;77.89
67799;SHT30;54596;43.216;27.904;2023-02-16T02:02:43;1.16;77.78
67799;SHT30;54596;43.216;27.904;2023-02-16T02:05:26;1.14;77.82
67799;SHT30;54596;43.216;27.904;2023-02-16T02:15:41;1.08;78.02
67799;SHT30;54596;43.216;27.904;2023-02-16T02:18:07;1.04;78.18
67799;SHT30;54596;43.216;27.904;2023-02-16T02:20:56;1.00;78.26
67799;SHT30;54596;43.216;27.904;2023-02-16T02:24:02;0.99;78.42
67799;SHT30;54596;43.216;27.904;2023-02-16T02:40:27;0.87;79.69
67799;SHT30;54596;43.216;27.904;2023-02-16T02:43:20;0.89;79.34
67799;SHT30;54596;43.216;27.904;2023-02-16T02:48:18;0.92;79.33
67799;SHT30;54596;43.216;27.904;2023-02-16T02:53:36;0.94;79.08
67799;SHT30;54596;43.216;27.904;2023-02-16T02:56:04;0.90;79.08
67799;SHT30;54596;43.216;27.904;2023-02-16T02:58:54;0.87;79.30
67799;SHT30;54596;43.216;27.904;2023-02-16T03:01:43;0.86;79.46
67799;SHT30;54596;43.216;27.904;2023-02-16T03:04:11;0.85;79.56
67799;SHT30;54596;43.216;27.904;2023-02-16T03:06:42;0.85;79.64
67799;SHT30;54596;43.216;27.904;2023-02-16T03:09:12;0.85;79.65
67799;SHT30;54596;43.216;27.904;2023-02-16T03:11:38;0.82;79.65
67799;SHT30;54596;43.216;27.904;2023-02-16T03:14:55;0.76;79.81
67799;SHT30;54596;43.216;27.904;2023-02-16T03:17:26;0.75;79.84
67799;SHT30;54596;43.216;27.904;2023-02-16T03:20:14;0.73;79.79
67799;SHT30;54596;43.216;27.904;2023-02-16T03:23:00;0.72;79.89
67799;SHT30;54596;43.216;27.904;2023-02-16T03:25:45;0.68;80.14
67799;SHT30;54596;43.216;27.904;2023-02-16T03:28:32;0.69;80.23
67799;SHT30;54596;43.216;27.904;2023-02-16T03:31:22;0.64;80.22
67799;SHT30;54596;43.216;27.904;2023-02-16T03:33:49;0.65;80.17
67799;SHT30;54596;43.216;27.904;2023-02-16T03:36:24;0.62;80.12
67799;SHT30;54596;43.216;27.904;2023-02-16T03:38:51;0.61;80.28
67799;SHT30;54596;43.216;27.904;2023-02-16T03:41:17;0.59;80.26
67799;SHT30;54596;43.216;27.904;2023-02-16T03:43:42;0.57;80.21
67799;SHT30;54596;43.216;27.904;2023-02-16T03:46:08;0.54;80.18
67799;SHT30;54596;43.216;27.904;2023-02-16T03:48:33;0.59;80.05
67799;SHT30;54596;43.216;27.904;2023-02-16T03:50:59;0.57;80.14
67799;SHT30;54596;43.216;27.904;2023-02-16T03:53:24;0.54;80.34
67799;SHT30;54596;43.216;27.904;2023-02-16T03:55:50;0.45;80.71
67799;SHT30;54596;43.216;27.904;2023-02-16T03:58:19;0.41;80.76
67799;SHT30;54596;43.216;27.904;2023-02-16T04:00:45;0.42;80.66
67799;SHT30;54596;43.216;27.904;2023-02-16T04:03:12;0.44;80.39
67799;SHT30;54596;43.216;27.904;2023-02-16T04:05:37;0.47;80.34
67799;SHT30;54596;43.216;27.904;2023-02-16T04:08:04;0.45;80.17
67799;SHT30;54596;43.216;27.904;2023-02-16T04:10:29;0.48;79.93
67799;SHT30;54596;43.216;27.904;2023-02-16T04:12:55;0.51;79.81
67799;SHT30;54596;43.216;27.904;2023-02-16T04:15:23;0.54;79.86
67799;SHT30;54596;43.216;27.904;2023-02-16T04:17:50;0.54;79.50
67799;SHT30;54596;43.216;27.904;2023-02-16T04:20:21;0.55;79.48
67799;SHT30;54596;43.216;27.904;2023-02-16T04:22:47;0.52;79.49
67799;SHT30;54596;43.216;27.904;2023-02-16T04:25:14;0.51;79.45
67799;SHT30;54596;43.216;27.904;2023-02-16T04:27:41;0.48;79.33
67799;SHT30;54596;43.216;27.904;2023-02-16T04:30:15;0.45;79.26
67799;SHT30;54596;43.216;27.904;2023-02-16T04:32:57;0.45;79.64
67799;SHT30;54596;43.216;27.904;2023-02-16T04:35:23;0.40;79.43
67799;SHT30;54596;43.216;27.904;2023-02-16T04:37:49;0.38;79.46
67799;SHT30;54596;43.216;27.904;2023-02-16T04:40:15;0.37;79.71
67799;SHT30;54596;43.216;27.904;2023-02-16T04:42:42;0.38;79.71
67799;SHT30;54596;43.216;27.904;2023-02-16T04:45:08;0.34;79.70
67799;SHT30;54596;43.216;27.904;2023-02-16T04:47:34;0.32;79.68
67799;SHT30;54596;43.216;27.904;2023-02-16T04:50:00;0.30;79.83
67799;SHT30;54596;43.216;27.904;2023-02-16T04:52:25;0.31;79.92
67799;SHT30;54596;43.216;27.904;2023-02-16T04:54:51;0.28;79.85
67799;SHT30;54596;43.216;27.904;2023-02-16T04:57:16;0.30;80.10
67799;SHT30;54596;43.216;27.904;2023-02-16T04:59:43;0.21;80.45
67799;SHT30;54596;43.216;27.904;2023-02-16T05:02:09;0.17;81.22
67799;SHT30;54596;43.216;27.904;2023-02-16T05:04:34;0.18;81.34
67799;SHT30;54596;43.216;27.904;2023-02-16T05:07:00;0.21;81.10
67799;SHT30;54596;43.216;27.904;2023-02-16T05:09:25;0.23;81.10
67799;SHT30;54596;43.216;27.904;2023-02-16T05:11:51;0.21;81.18
67799;SHT30;54596;43.216;27.904;2023-02-16T05:14:35;0.24;80.86
67799;SHT30;54596;43.216;27.904;2023-02-16T05:17:27;0.30;80.10
67799;SHT30;54596;43.216;27.904;2023-02-16T05:19:55;0.36;80.12
67799;SHT30;54596;43.216;27.904;2023-02-16T05:22:21;0.36;79.93
67799;SHT30;54596;43.216;27.904;2023-02-16T05:24:49;0.40;79.93
67799;SHT30;54596;43.216;27.904;2023-02-16T05:27:20;0.42;80.12
67799;SHT30;54596;43.216;27.904;2023-02-16T05:29:46;0.45;79.79
67799;SHT30;54596;43.216;27.904;2023-02-16T05:32:11;0.47;79.86
67799;SHT30;54596;43.216;27.904;2023-02-16T05:34:37;0.52;80.06
67799;SHT30;54596;43.216;27.904;2023-02-16T05:37:03;0.58;80.05
67799;SHT30;54596;43.216;27.904;2023-02-16T05:39:28;0.61;79.91
67799;SHT30;54596;43.216;27.904;2023-02-16T05:41:54;0.65;79.85
67799;SHT30;54596;43.216;27.904;2023-02-16T05:44:20;0.73;79.83
67799;SHT30;54596;43.216;27.904;2023-02-16T05:46:46;0.80;79.67
67799;SHT30;54596;43.216;27.904;2023-02-16T05:49:12;0.82;79.75
67799;SHT30;54596;43.216;27.904;2023-02-16T05:51:38;0.85;79.78
67799;SHT30;54596;43.216;27.904;2023-02-16T05:54:04;0.94;79.70
67799;SHT30;54596;43.216;27.904;2023-02-16T05:56:30;0.99;79.64
67799;SHT30;54596;43.216;27.904;2023-02-16T05:58:57;1.05;80.00
67799;SHT30;54596;43.216;27.904;2023-02-16T06:01:24;1.13;79.85
67799;SHT30;54596;43.216;27.904;2023-02-16T06:03:50;1.23;79.77
67799;SHT30;54596;43.216;27.904;2023-02-16T06:06:15;1.32;80.91
67799;SHT30;54596;43.216;27.904;2023-02-16T06:08:41;1.45;80.86
67799;SHT30;54596;43.216;27.904;2023-02-16T06:11:07;1.74;79.26
67799;SHT30;54596;43.216;27.904;2023-02-16T06:13:53;3.31;75.88
67799;SHT30;54596;43.216;27.904;2023-02-16T06:16:23;5.04;71.22
67799;SHT30;54596;43.216;27.904;2023-02-16T06:18:49;5.87;67.74
67799;SHT30;54596;43.216;27.904;2023-02-16T06:21:15;6.82;65.27
67799;SHT30;54596;43.216;27.904;2023-02-16T06:23:40;7.90;62.18
67799;SHT30;54596;43.216;27.904;2023-02-16T06:26:06;9.21;58.47
67799;SHT30;54596;43.216;27.904;2023-02-16T06:28:31;9.79;55.88
67799;SHT30;54596;43.216;27.904;2023-02-16T06:30:57;10.37;54.41
67799;SHT30;54596;43.216;27.904;2023-02-16T06:33:22;11.24;53.06
67799;SHT30;54596;43.216;27.904;2023-02-16T06:35:48;11.84;51.37
67799;SHT30;54596;43.216;27.904;2023-02-16T06:38:14;12.42;50.24
67799;SHT30;54596;43.216;27.904;2023-02-16T06:40:40;12.50;50.29
67799;SHT30;54596;43.216;27.904;2023-02-16T06:43:06;11.94;51.74
67799;SHT30;54596;43.216;27.904;2023-02-16T06:45:31;11.76;51.79
67799;SHT30;54596;43.216;27.904;2023-02-16T06:47:56;11.80;51.22
67799;SHT30;54596;43.216;27.904;2023-02-16T06:50:22;12.25;50.27
67799;SHT30;54596;43.216;27.904;2023-02-16T06:52:47;12.84;49.44
67799;SHT30;54596;43.216;27.904;2023-02-16T06:55:13;12.83;48.43
67799;SHT30;54596;43.216;27.904;2023-02-16T06:57:38;13.16;49.22
67799;SHT30;54596;43.216;27.904;2023-02-16T07:00:05;12.76;49.67
67799;SHT30;54596;43.216;27.904;2023-02-16T07:02:32;12.83;50.94
67799;SHT30;54596;43.216;27.904;2023-02-16T07:04:57;12.73;51.54
67799;SHT30;54596;43.216;27.904;2023-02-16T07:07:23;13.28;50.05
67799;SHT30;54596;43.216;27.904;2023-02-16T07:09:49;13.42;50.11
67799;SHT30;54596;43.216;27.904;2023-02-16T07:12:14;13.73;50.14
67799;SHT30;54596;43.216;27.904;2023-02-16T07:14:41;13.73;49.95
67799;SHT30;54596;43.216;27.904;2023-02-16T07:17:07;14.15;48.42
67799;SHT30;54596;43.216;27.904;2023-02-16T07:19:32;13.97;48.98
67799;SHT30;54596;43.216;27.904;2023-02-16T07:22:01;14.60;47.70
67799;SHT30;54596;43.216;27.904;2023-02-16T07:24:27;14.63;47.89
67799;SHT30;54596;43.216;27.904;2023-02-16T07:26:54;14.55;47.51
67799;SHT30;54596;43.216;27.904;2023-02-16T07:29:19;15.42;45.81
67799;SHT30;54596;43.216;27.904;2023-02-16T07:31:45;15.83;44.85
67799;SHT30;54596;43.216;27.904;2023-02-16T07:34:10;15.32;45.88
67799;SHT30;54596;43.216;27.904;2023-02-16T07:36:36;14.87;46.70
67799;SHT30;54596;43.216;27.904;2023-02-16T07:39:02;15.53;46.07
67799;SHT30;54596;43.216;27.904;2023-02-16T07:41:27;14.84;46.51
67799;SHT30;54596;43.216;27.904;2023-02-16T07:43:53;14.97;46.41
67799;SHT30;54596;43.216;27.904;2023-02-16T07:46:18;14.87;46.49
67799;SHT30;54596;43.216;27.904;2023-02-16T07:48:48;15.24;45.95
67799;SHT30;54596;43.216;27.904;2023-02-16T07:51:23;15.73;44.79
67799;SHT30;54596;43.216;27.904;2023-02-16T07:53:49;15.95;44.36
67799;SHT30;54596;43.216;27.904;2023-02-16T07:56:23;16.23;43.49
67799;SHT30;54596;43.216;27.904;2023-02-16T07:58:51;16.99;42.95
67799;SHT30;54596;43.216;27.904;2023-02-16T08:01:16;16.00;43.15
67799;SHT30;54596;43.216;27.904;2023-02-16T08:03:42;16.08;43.58
67799;SHT30;54596;43.216;27.904;2023-02-16T08:06:07;16.18;43.87
67799;SHT30;54596;43.216;27.904;2023-02-16T08:08:34;16.19;43.93
67799;SHT30;54596;43.216;27.904;2023-02-16T08:10:59;15.84;44.95
67799;SHT30;54596;43.216;27.904;2023-02-16T08:13:31;16.32;44.78
67799;SHT30;54596;43.216;27.904;2023-02-16T08:15:57;17.07;43.85
67799;SHT30;54596;43.216;27.904;2023-02-16T08:18:22;16.64;44.14
67799;SHT30;54596;43.216;27.904;2023-02-16T08:20:48;16.04;44.63
67799;SHT30;54596;43.216;27.904;2023-02-16T08:23:13;15.39;45.31
67799;SHT30;54596;43.216;27.904;2023-02-16T08:25:38;15.38;45.38
67799;SHT30;54596;43.216;27.904;2023-02-16T08:28:04;15.67;45.21
67799;SHT30;54596;43.216;27.904;2023-02-16T08:30:32;16.13;44.61
67799;SHT30;54596;43.216;27.904;2023-02-16T08:32:59;15.63;45.35
67799;SHT30;54596;43.216;27.904;2023-02-16T08:35:28;15.36;45.71
67799;SHT30;54596;43.216;27.904;2023-02-16T08:37:57;15.50;45.26
67799;SHT30;54596;43.216;27.904;2023-02-16T08:40:24;15.08;46.02
67799;SHT30;54596;43.216;27.904;2023-02-16T08:42:51;14.88;46.53
67799;SHT30;54596;43.216;27.904;2023-02-16T08:45:18;15.64;45.23
67799;SHT30;54596;43.216;27.904;2023-02-16T08:47:45;15.08;45.92
67799;SHT30;54596;43.216;27.904;2023-02-16T08:50:13;15.05;45.94
67799;SHT30;54596;43.216;27.904;2023-02-16T08:52:41;14.36;47.01
67799;SHT30;54596;43.216;27.904;2023-02-16T08:55:07;14.59;46.84
67799;SHT30;54596;43.216;27.904;2023-02-16T08:57:33;15.15;46.33
67799;SHT30;54596;43.216;27.904;2023-02-16T08:59:59;15.29;46.18
67799;SHT30;54596;43.216;27.904;2023-02-16T09:02:43;15.31;46.42
67799;SHT30;54596;43.216;27.904;2023-02-16T09:05:08;14.91;47.15
67799;SHT30;54596;43.216;27.904;2023-02-16T09:07:34;14.91;47.09
67799;SHT30;54596;43.216;27.904;2023-02-16T09:10:01;14.39;48.04
67799;SHT30;54596;43.216;27.904;2023-02-16T09:12:27;13.77;48.62
67799;SHT30;54596;43.216;27.904;2023-02-16T09:14:54;13.48;48.92
67799;SHT30;54596;43.216;27.904;2023-02-16T09:17:19;13.26;48.99
67799;SHT30;54596;43.216;27.904;2023-02-16T09:19:45;13.07;49.28
67799;SHT30;54596;43.216;27.904;2023-02-16T09:22:10;12.69;50.12
67799;SHT30;54596;43.216;27.904;2023-02-16T09:24:37;12.63;50.20
67799;SHT30;54596;43.216;27.904;2023-02-16T09:27:02;12.59;49.43
67799;SHT30;54596;43.216;27.904;2023-02-16T09:29:29;12.17;50.34
67799;SHT30;54596;43.216;27.904;2023-02-16T09:31:55;12.02;50.92
67799;SHT30;54596;43.216;27.904;2023-02-16T09:34:22;11.81;50.98
67799;SHT30;54596;43.216;27.904;2023-02-16T09:36:48;11.34;51.58
67799;SHT30;54596;43.216;27.904;2023-02-16T09:39:14;11.27;51.99
67799;SHT30;54596;43.216;27.904;2023-02-16T09:44:48;10.93;52.36
67799;SHT30;54596;43.216;27.904;2023-02-16T09:49:45;10.70;51.39
67799;SHT30;54596;43.216;27.904;2023-02-16T09:55:01;10.65;50.86
67799;SHT30;54596;43.216;27.904;2023-02-16T10:03:18;10.46;51.00
67799;SHT30;54596;43.216;27.904;2023-02-16T10:08:39;10.58;50.74
67799;SHT30;54596;43.216;27.904;2023-02-16T10:11:13;10.52;50.30
67799;SHT30;54596;43.216;27.904;2023-02-16T10:14:06;10.55;49.72
67799;SHT30;54596;43.216;27.904;2023-02-16T10:16:41;10.52;49.54
67799;SHT30;54596;43.216;27.904;2023-02-16T10:19:22;10.63;49.64
67799;SHT30;54596;43.216;27.904;2023-02-16T10:21:52;10.66;49.70
67799;SHT30;54596;43.216;27.904;2023-02-16T10:24:19;10.67;50.16
67799;SHT30;54596;43.216;27.904;2023-02-16T10:26:47;10.66;49.35
67799;SHT30;54596;43.216;27.904;2023-02-16T10:29:16;10.72;50.29
67799;SHT30;54596;43.216;27.904;2023-02-16T10:40:21;10.77;50.21
67799;SHT30;54596;43.216;27.904;2023-02-16T10:42:54;10.83;50.43
67799;SHT30;54596;43.216;27.904;2023-02-16T10:45:47;10.81;50.03
67799;SHT30;54596;43.216;27.904;2023-02-16T10:48:13;10.87;50.26
67799;SHT30;54596;43.216;27.904;2023-02-16T10:51:00;10.81;50.07
67799;SHT30;54596;43.216;27.904;2023-02-16T10:53:39;10.90;50.20
67799;SHT30;54596;43.216;27.904;2023-02-16T10:59:17;10.93;49.54
67799;SHT30;54596;43.216;27.904;2023-02-16T11:04:43;11.04;48.93
67799;SHT30;54596;43.216;27.904;2023-02-16T11:07:12;11.06;48.68
67799;SHT30;54596;43.216;27.904;2023-02-16T11:09:40;11.17;48.78
67799;SHT30;54596;43.216;27.904;2023-02-16T11:14:54;11.22;47.67
67799;SHT30;54596;43.216;27.904;2023-02-16T11:17:21;11.17;46.64
67799;SHT30;54596;43.216;27.904;2023-02-16T11:19:56;11.14;46.85
67799;SHT30;54596;43.216;27.904;2023-02-16T11:22:37;10.92;55.48
67799;SHT30;54596;43.216;27.904;2023-02-16T11:25:23;10.70;58.96
67799;SHT30;54596;43.216;27.904;2023-02-16T11:28:01;10.34;59.45
67799;SHT30;54596;43.216;27.904;2023-02-16T11:30:33;10.21;60.52
67799;SHT30;54596;43.216;27.904;2023-02-16T11:33:04;10.08;58.66
67799;SHT30;54596;43.216;27.904;2023-02-16T11:35:42;10.10;59.75
67799;SHT30;54596;43.216;27.904;2023-02-16T11:38:26;9.98;61.98
67799;SHT30;54596;43.216;27.904;2023-02-16T11:40:53;9.63;61.56
67799;SHT30;54596;43.216;27.904;2023-02-16T11:43:19;9.38;62.22
67799;SHT30;54596;43.216;27.904;2023-02-16T11:46:13;9.20;60.32
67799;SHT30;54596;43.216;27.904;2023-02-16T11:48:39;9.16;60.02
67799;SHT30;54596;43.216;27.904;2023-02-16T11:51:09;9.03;61.36
67799;SHT30;54596;43.216;27.904;2023-02-16T11:53:40;8.94;61.11
67799;SHT30;54596;43.216;27.904;2023-02-16T11:56:24;8.86;62.24
67799;SHT30;54596;43.216;27.904;2023-02-16T11:59:11;8.80;65.87
67799;SHT30;54596;43.216;27.904;2023-02-16T12:13:27;8.42;72.68
67799;SHT30;54596;43.216;27.904;2023-02-16T12:21:48;8.27;74.49
67799;SHT30;54596;43.216;27.904;2023-02-16T12:24:57;8.03;74.59
67799;SHT30;54596;43.216;27.904;2023-02-16T12:27:32;7.97;74.05
67799;SHT30;54596;43.216;27.904;2023-02-16T12:33:00;7.78;73.54
67799;SHT30;54596;43.216;27.904;2023-02-16T12:44:41;7.72;74.32
67799;SHT30;54596;43.216;27.904;2023-02-16T12:47:14;7.83;74.05
67799;SHT30;54596;43.216;27.904;2023-02-16T12:49:55;7.79;73.57
67799;SHT30;54596;43.216;27.904;2023-02-16T12:52:34;7.81;74.48
67799;SHT30;54596;43.216;27.904;2023-02-16T12:55:26;7.85;74.21
67799;SHT30;54596;43.216;27.904;2023-02-16T12:58:30;7.82;73.77
67799;SHT30;54596;43.216;27.904;2023-02-16T13:01:08;7.75;73.72
67799;SHT30;54596;43.216;27.904;2023-02-16T13:03:44;7.58;73.07
67799;SHT30;54596;43.216;27.904;2023-02-16T13:06:31;7.59;73.94
67799;SHT30;54596;43.216;27.904;2023-02-16T13:11:46;7.55;72.79
67799;SHT30;54596;43.216;27.904;2023-02-16T13:14:20;7.59;72.93
67799;SHT30;54596;43.216;27.904;2023-02-16T13:16:48;7.64;71.45
67799;SHT30;54596;43.216;27.904;2023-02-16T13:19:15;7.74;70.89
67799;SHT30;54596;43.216;27.904;2023-02-16T13:43:54;7.75;67.48
67799;SHT30;54596;43.216;27.904;2023-02-16T13:46:43;7.74;67.38
67799;SHT30;54596;43.216;27.904;2023-02-16T13:49:35;7.64;68.65
67799;SHT30;54596;43.216;27.904;2023-02-16T13:52:05;7.57;70.35
67799;SHT30;54596;43.216;27.904;2023-02-16T13:54:40;7.57;71.05
67799;SHT30;54596;43.216;27.904;2023-02-16T13:57:11;7.65;68.18
67799;SHT30;54596;43.216;27.904;2023-02-16T14:02:09;7.72;69.65
67799;SHT30;54596;43.216;27.904;2023-02-16T14:09:44;7.61;69.63
67799;SHT30;54596;43.216;27.904;2023-02-16T14:27:58;7.31;72.35
67799;SHT30;54596;43.216;27.904;2023-02-16T14:30:56;7.22;73.63
67799;SHT30;54596;43.216;27.904;2023-02-16T14:36:22;7.33;73.87
67799;SHT30;54596;43.216;27.904;2023-02-16T14:38:54;7.35;73.80
67799;SHT30;54596;43.216;27.904;2023-02-16T14:43:49;7.26;74.55
67799;SHT30;54596;43.216;27.904;2023-02-16T14:55:14;7.06;75.38
67799;SHT30;54596;43.216;27.904;2023-02-16T14:57:47;7.03;75.69
67799;SHT30;54596;43.216;27.904;2023-02-16T15:00:34;6.89;76.25
67799;SHT30;54596;43.216;27.904;2023-02-16T15:03:23;6.89;76.39
67799;SHT30;54596;43.216;27.904;2023-02-16T15:06:01;6.95;76.49
67799;SHT30;54596;43.216;27.904;2023-02-16T15:08:33;6.84;76.51
67799;SHT30;54596;43.216;27.904;2023-02-16T15:11:24;6.79;76.63
67799;SHT30;54596;43.216;27.904;2023-02-16T15:13:50;6.82;76.91
67799;SHT30;54596;43.216;27.904;2023-02-16T15:16:18;6.75;77.21
67799;SHT30;54596;43.216;27.904;2023-02-16T15:18:50;6.63;77.86
67799;SHT30;54596;43.216;27.904;2023-02-16T15:21:18;6.55;78.00
67799;SHT30;54596;43.216;27.904;2023-02-16T15:23:51;6.57;78.01
67799;SHT30;54596;43.216;27.904;2023-02-16T15:26:20;6.58;77.94
67799;SHT30;54596;43.216;27.904;2023-02-16T15:28:52;6.54;78.25
67799;SHT30;54596;43.216;27.904;2023-02-16T15:31:18;6.52;78.20
67799;SHT30;54596;43.216;27.904;2023-02-16T15:33:55;6.55;78.43
67799;SHT30;54596;43.216;27.904;2023-02-16T15:36:34;6.55;78.57
67799;SHT30;54596;43.216;27.904;2023-02-16T15:39:03;6.37;79.16
67799;SHT30;54596;43.216;27.904;2023-02-16T15:41:34;6.32;79.24
67799;SHT30;54596;43.216;27.904;2023-02-16T15:44:01;6.40;78.94
67799;SHT30;54596;43.216;27.904;2023-02-16T15:46:32;6.33;79.24
67799;SHT30;54596;43.216;27.904;2023-02-16T15:49:09;6.29;79.67
67799;SHT30;54596;43.216;27.904;2023-02-16T15:51:34;6.30;79.38
67799;SHT30;54596;43.216;27.904;2023-02-16T15:54:29;6.32;79.44
67799;SHT30;54596;43.216;27.904;2023-02-16T15:57:11;6.25;80.03
67799;SHT30;54596;43.216;27.904;2023-02-16T16:02:25;6.19;80.63
67799;SHT30;54596;43.216;27.904;2023-02-16T16:04:58;6.26;80.88
67799;SHT30;54596;43.216;27.904;2023-02-16T16:07:30;6.25;81.05
67799;SHT30;54596;43.216;27.904;2023-02-16T16:09:57;6.20;81.14
67799;SHT30;54596;43.216;27.904;2023-02-16T16:12:24;6.10;81.62
67799;SHT30;54596;43.216;27.904;2023-02-16T16:15:00;6.10;81.94
67799;SHT30;54596;43.216;27.904;2023-02-16T16:17:29;6.13;81.83
67799;SHT30;54596;43.216;27.904;2023-02-16T16:19:56;6.10;81.87
67799;SHT30;54596;43.216;27.904;2023-02-16T16:22:34;6.06;82.32
67799;SHT30;54596;43.216;27.904;2023-02-16T16:25:01;6.02;82.36
67799;SHT30;54596;43.216;27.904;2023-02-16T16:27:33;6.05;82.64
67799;SHT30;54596;43.216;27.904;2023-02-16T16:30:26;6.05;82.87
67799;SHT30;54596;43.216;27.904;2023-02-16T16:32:59;6.03;82.83
67799;SHT30;54596;43.216;27.904;2023-02-16T16:35:45;6.02;83.02
67799;SHT30;54596;43.216;27.904;2023-02-16T16:40:50;6.10;82.21
67799;SHT30;54596;43.216;27.904;2023-02-16T16:43:16;6.06;82.04
67799;SHT30;54596;43.216;27.904;2023-02-16T16:45:45;6.01;81.34
67799;SHT30;54596;43.216;27.904;2023-02-16T16:48:20;6.05;81.29
67799;SHT30;54596;43.216;27.904;2023-02-16T16:56:19;6.02;81.02
67799;SHT30;54596;43.216;27.904;2023-02-16T16:58:53;6.06;80.81
67799;SHT30;54596;43.216;27.904;2023-02-16T17:01:22;6.06;80.45
67799;SHT30;54596;43.216;27.904;2023-02-16T17:03:48;6.03;80.74
67799;SHT30;54596;43.216;27.904;2023-02-16T17:06:14;6.06;80.67
67799;SHT30;54596;43.216;27.904;2023-02-16T17:08:40;5.99;81.01
67799;SHT30;54596;43.216;27.904;2023-02-16T17:11:07;5.97;81.34
67799;SHT30;54596;43.216;27.904;2023-02-16T17:13:37;5.92;82.12
67799;SHT30;54596;43.216;27.904;2023-02-16T17:16:10;5.94;81.01
67799;SHT30;54596;43.216;27.904;2023-02-16T17:18:37;5.99;83.31
67799;SHT30;54596;43.216;27.904;2023-02-16T17:21:04;5.95;83.25
67799;SHT30;54596;43.216;27.904;2023-02-16T17:23:29;5.91;83.40
67799;SHT30;54596;43.216;27.904;2023-02-16T17:25:55;5.88;83.54
67799;SHT30;54596;43.216;27.904;2023-02-16T17:28:20;5.88;83.76
67799;SHT30;54596;43.216;27.904;2023-02-16T17:30:46;5.87;84.55
67799;SHT30;54596;43.216;27.904;2023-02-16T17:33:12;5.79;85.05
67799;SHT30;54596;43.216;27.904;2023-02-16T17:35:40;5.79;85.14
67799;SHT30;54596;43.216;27.904;2023-02-16T17:38:16;5.72;85.49
67799;SHT30;54596;43.216;27.904;2023-02-16T17:40:42;5.75;85.39
67799;SHT30;54596;43.216;27.904;2023-02-16T17:43:13;5.75;85.16
67799;SHT30;54596;43.216;27.904;2023-02-16T17:45:39;5.81;85.44
67799;SHT30;54596;43.216;27.904;2023-02-16T17:48:05;5.82;85.08
67799;SHT30;54596;43.216;27.904;2023-02-16T17:50:31;5.82;84.89
67799;SHT30;54596;43.216;27.904;2023-02-16T17:52:57;5.78;84.77
67799;SHT30;54596;43.216;27.904;2023-02-16T17:55:23;5.78;84.68
67799;SHT30;54596;43.216;27.904;2023-02-16T17:57:49;5.79;84.44
67799;SHT30;54596;43.216;27.904;2023-02-16T18:00:17;5.79;84.40
67799;SHT30;54596;43.216;27.904;2023-02-16T18:02:43;5.77;84.57
67799;SHT30;54596;43.216;27.904;2023-02-16T18:05:09;5.75;84.57
67799;SHT30;54596;43.216;27.904;2023-02-16T18:07:35;5.70;84.70
67799;SHT30;54596;43.216;27.904;2023-02-16T18:10:00;5.68;84.66
67799;SHT30;54596;43.216;27.904;2023-02-16T18:12:27;5.70;84.67
67799;SHT30;54596;43.216;27.904;2023-02-16T18:14:52;5.71;84.65
67799;SHT30;54596;43.216;27.904;2023-02-16T18:17:18;5.70;84.34
67799;SHT30;54596;43.216;27.904;2023-02-16T18:19:43;5.72;84.15
67799;SHT30;54596;43.216;27.904;2023-02-16T18:22:10;5.71;84.03
67799;SHT30;54596;43.216;27.904;2023-02-16T18:24:38;5.67;83.99
67799;SHT30;54596;43.216;27.904;2023-02-16T18:27:03;5.71;84.15
67799;SHT30;54596;43.216;27.904;2023-02-16T18:29:29;5.63;83.43
67799;SHT30;54596;43.216;27.904;2023-02-16T18:31:55;5.60;83.13
67799;SHT30;54596;43.216;27.904;2023-02-16T18:34:20;5.60;83.33
67799;SHT30;54596;43.216;27.904;2023-02-16T18:36:46;5.63;82.96
67799;SHT30;54596;43.216;27.904;2023-02-16T18:39:12;5.58;82.59
67799;SHT30;54596;43.216;27.904;2023-02-16T18:41:38;5.58;82.53
67799;SHT30;54596;43.216;27.904;2023-02-16T18:44:04;5.58;82.32